createdAt,value
2022-11-05T00:05:20.837Z,7.53
2022-11-05T00:10:27.221Z,7.60
2022-11-05T00:15:48.528Z,8.33
2022-11-05T00:20:51.330Z,8.40
2022-11-05T00:26:05.986Z,8.30
2022-11-05T00:31:11.208Z,8.57
2022-11-05T00:36:14.121Z,8.80
2022-11-05T00:41:17.386Z,8.57
2022-11-05T00:46:20.340Z,9.40
2022-11-05T00:51:23.437Z,9.00
2022-11-05T00:56:26.398Z,9.97
2022-11-05T01:01:29.779Z,9.83
2022-11-05T01:06:32.845Z,9.50
2022-11-05T01:11:37.433Z,9.73
2022-11-05T01:16:40.759Z,9.80
2022-11-05T01:21:43.988Z,9.67
2022-11-05T01:26:47.566Z,10.30
2022-11-05T01:31:50.620Z,9.70
2022-11-05T01:36:53.579Z,9.43
2022-11-05T01:41:56.686Z,10.30
2022-11-05T01:46:59.755Z,10.07
2022-11-05T01:52:04.117Z,9.73
2022-11-05T01:57:09.489Z,10.17
2022-11-05T02:02:12.530Z,9.83
2022-11-05T02:07:15.865Z,9.80
2022-11-05T02:12:19.125Z,9.67
2022-11-05T02:17:29.764Z,9.30
2022-11-05T02:22:54.477Z,9.40
2022-11-05T02:28:48.720Z,8.50
2022-11-05T02:34:09.729Z,9.37
2022-11-05T02:39:25.630Z,8.23
2022-11-05T02:44:57.472Z,9.20
2022-11-05T02:50:25.489Z,9.43
2022-11-05T02:55:37.188Z,9.07
2022-11-05T03:00:54.248Z,9.33
2022-11-05T03:06:35.036Z,9.10
2022-11-05T03:11:51.559Z,9.23
2022-11-05T03:17:02.691Z,11.40
2022-11-05T03:22:10.271Z,10.13
2022-11-05T03:27:16.108Z,12.30
2022-11-05T03:32:20.858Z,11.90
2022-11-05T03:37:25.424Z,12.57
2022-11-05T03:42:31.311Z,10.83
2022-11-05T03:47:37.990Z,10.57
2022-11-05T03:52:47.305Z,11.03
2022-11-05T03:57:51.795Z,10.27
2022-11-05T04:02:55.502Z,10.60
2022-11-05T04:08:16.929Z,10.10
2022-11-05T04:13:26.032Z,11.83
2022-11-05T04:18:29.001Z,12.13
2022-11-05T04:23:50.332Z,12.30
2022-11-05T04:29:11.949Z,11.80
2022-11-05T04:34:16.491Z,12.57
2022-11-05T04:39:20.031Z,12.77
2022-11-05T04:44:22.896Z,12.63
2022-11-05T04:49:25.935Z,13.70
2022-11-05T04:54:28.895Z,13.87
2022-11-05T04:59:32.119Z,12.80
2022-11-05T05:04:35.201Z,14.17
2022-11-05T05:09:38.340Z,13.00
2022-11-05T05:14:41.213Z,24.13
2022-11-05T05:20:03.208Z,26.03
2022-11-05T05:25:06.210Z,18.43
2022-11-05T05:30:09.914Z,16.53
2022-11-05T05:35:12.989Z,12.87
2022-11-05T05:40:15.837Z,11.17
2022-11-05T05:45:19.532Z,12.13
2022-11-05T05:50:22.395Z,20.73
2022-11-05T05:55:28.193Z,13.00
2022-11-05T06:00:30.985Z,13.13
2022-11-05T06:05:33.885Z,13.23
2022-11-05T06:10:36.714Z,13.60
2022-11-05T06:15:39.640Z,12.63
2022-11-05T06:20:42.746Z,12.70
2022-11-05T06:25:45.561Z,30.80
2022-11-05T06:30:52.139Z,11.23
2022-11-05T06:35:58.069Z,11.30
2022-11-05T06:41:05.753Z,10.53
2022-11-05T06:46:12.233Z,9.50
2022-11-05T06:51:15.638Z,9.43
2022-11-05T06:56:18.551Z,9.90
2022-11-05T07:01:21.524Z,9.73
2022-11-05T07:06:24.664Z,10.63
2022-11-05T07:11:27.625Z,19.47
2022-11-05T07:16:30.656Z,11.90
2022-11-05T07:21:33.812Z,11.90
2022-11-05T07:26:37.735Z,13.73
2022-11-05T07:31:40.929Z,12.13
2022-11-05T07:36:43.825Z,12.33
2022-11-05T07:41:46.760Z,11.93
2022-11-05T07:46:50.859Z,12.00
2022-11-05T07:51:53.927Z,15.83
2022-11-05T07:56:56.956Z,13.53
2022-11-05T08:02:00.085Z,15.93
2022-11-05T08:07:03.282Z,14.70
2022-11-05T08:12:06.740Z,17.80
2022-11-05T08:17:10.824Z,17.50
2022-11-05T08:22:15.462Z,14.80
2022-11-05T08:27:18.402Z,15.70
2022-11-05T08:32:21.318Z,16.37
2022-11-05T08:37:24.323Z,18.13
2022-11-05T08:42:27.098Z,18.97
2022-11-05T08:47:32.868Z,18.07
2022-11-05T08:52:35.781Z,15.67
2022-11-05T08:57:38.859Z,15.90
2022-11-05T09:02:41.932Z,17.70
2022-11-05T09:07:44.994Z,17.70
2022-11-05T09:12:48.436Z,15.53
2022-11-05T09:17:53.983Z,16.47
2022-11-05T09:22:57.116Z,13.83
2022-11-05T09:28:16.855Z,14.97
2022-11-05T09:33:23.021Z,13.57
2022-11-05T09:38:26.157Z,19.70
2022-11-05T09:43:34.821Z,13.63
2022-11-05T09:48:39.068Z,13.60
2022-11-05T09:53:45.389Z,16.37
2022-11-05T09:58:52.578Z,12.17
2022-11-05T10:03:57.774Z,13.67
2022-11-05T10:09:09.383Z,29.97
2022-11-05T10:14:39.552Z,8.83
2022-11-05T10:19:46.700Z,12.27
2022-11-05T10:24:50.857Z,33.23
2022-11-05T10:29:53.744Z,9.43
2022-11-05T10:34:59.647Z,9.00
2022-11-05T10:40:02.570Z,18.53
2022-11-05T10:45:25.021Z,6.83
2022-11-05T10:50:29.705Z,31.70
2022-11-05T10:55:35.595Z,9.33
2022-11-05T11:00:39.175Z,8.77
2022-11-05T11:05:42.203Z,8.13
2022-11-05T11:10:48.522Z,70.57
2022-11-05T11:15:51.784Z,9.90
2022-11-05T11:21:05.865Z,4.83
2022-11-05T11:26:11.195Z,8.20
2022-11-05T11:31:15.110Z,6.73
2022-11-05T11:36:20.248Z,7.07
2022-11-05T11:41:29.971Z,6.87
2022-11-05T11:46:34.420Z,4.50
2022-11-05T11:51:49.848Z,2.57
2022-11-05T11:56:53.132Z,5.03
2022-11-05T12:02:05.502Z,2.97
2022-11-05T12:07:08.689Z,6.83
2022-11-05T12:12:16.143Z,4.07
2022-11-05T12:17:28.056Z,8.27
2022-11-05T12:23:01.322Z,7.03
2022-11-05T12:28:14.267Z,3.90
2022-11-05T12:33:17.532Z,10.93
2022-11-05T12:39:10.352Z,4.97
2022-11-05T12:44:16.105Z,5.70
2022-11-05T12:49:31.096Z,6.57
2022-11-05T12:55:12.351Z,6.93
2022-11-05T13:00:24.077Z,4.70
2022-11-05T13:05:42.258Z,8.63
2022-11-05T13:10:49.512Z,7.53
2022-11-05T13:15:59.719Z,11.77
2022-11-05T13:21:05.163Z,16.17
2022-11-05T13:26:19.749Z,15.23
2022-11-05T13:31:36.656Z,7.10
2022-11-05T13:37:07.081Z,9.33
2022-11-05T13:42:37.430Z,9.97
2022-11-05T13:47:43.201Z,21.17
2022-11-05T13:53:12.353Z,13.83
2022-11-05T13:58:30.407Z,15.53
2022-11-05T14:03:33.687Z,16.30
2022-11-05T14:08:41.757Z,9.63
2022-11-05T14:13:45.510Z,7.47
2022-11-05T14:18:54.771Z,12.20
2022-11-05T14:24:17.213Z,6.20
2022-11-05T14:29:24.388Z,8.60
2022-11-05T14:35:01.124Z,14.13
2022-11-05T14:40:23.996Z,5.10
2022-11-05T14:45:36.876Z,6.10
2022-11-05T14:50:42.320Z,4.43
2022-11-05T14:55:46.083Z,6.50
2022-11-05T15:00:49.199Z,6.03
2022-11-05T15:05:53.459Z,4.50
2022-11-05T15:11:04.713Z,5.13
2022-11-05T15:16:07.771Z,4.80
2022-11-05T15:21:14.625Z,9.10
2022-11-05T15:26:38.295Z,8.87
2022-11-05T15:31:43.411Z,6.47
2022-11-05T15:36:57.903Z,10.53
2022-11-05T15:42:04.986Z,8.03
2022-11-05T15:47:24.039Z,14.93
2022-11-05T15:52:42.552Z,14.50
2022-11-05T15:57:50.614Z,10.53
2022-11-05T16:02:57.416Z,11.53
2022-11-05T16:08:02.133Z,17.63
2022-11-05T16:13:41.526Z,10.90
2022-11-05T16:18:45.183Z,10.70
2022-11-05T16:23:48.116Z,11.07
2022-11-05T16:28:51.426Z,11.87
2022-11-05T16:33:54.711Z,17.13
2022-11-05T16:38:58.311Z,23.60
2022-11-05T16:44:01.372Z,15.67
2022-11-05T16:49:04.251Z,15.17
2022-11-05T16:54:08.101Z,17.53
2022-11-05T16:59:12.773Z,30.13
2022-11-05T17:04:15.812Z,19.63
2022-11-05T17:09:18.757Z,17.10
2022-11-05T17:14:22.321Z,16.83
2022-11-05T17:19:25.472Z,14.43
2022-11-05T17:24:28.297Z,12.37
2022-11-05T17:29:31.274Z,12.83
2022-11-05T17:34:34.194Z,14.33
2022-11-05T17:39:37.163Z,66.10
2022-11-05T17:44:40.092Z,122.53
2022-11-05T17:49:43.252Z,108.70
2022-11-05T17:54:46.954Z,43.53
2022-11-05T17:59:49.912Z,15.93
2022-11-05T18:04:55.166Z,12.57
2022-11-05T18:09:58.011Z,14.43
2022-11-05T18:15:01.190Z,14.07
2022-11-05T18:20:11.681Z,13.27
2022-11-05T18:25:16.237Z,45.33
2022-11-05T18:30:19.020Z,18.07
2022-11-05T18:35:21.991Z,20.73
2022-11-05T18:40:24.849Z,59.13
2022-11-05T18:45:29.897Z,25.20
2022-11-05T18:50:33.027Z,33.97
2022-11-05T18:55:39.302Z,21.47
2022-11-05T19:00:42.368Z,16.00
2022-11-05T19:05:45.690Z,12.27
2022-11-05T19:10:51.620Z,12.57
2022-11-05T19:15:54.833Z,10.00
2022-11-05T19:20:58.192Z,8.63
2022-11-05T19:26:04.870Z,17.43
2022-11-05T19:31:08.554Z,27.63
2022-11-05T19:36:12.371Z,68.93
2022-11-05T19:41:15.625Z,28.23
2022-11-05T19:46:19.638Z,28.47
2022-11-05T19:51:25.221Z,16.80
2022-11-05T19:56:31.700Z,12.20
2022-11-05T20:01:35.484Z,28.67
2022-11-05T20:06:40.241Z,39.57
2022-11-05T20:11:45.187Z,16.47
2022-11-05T20:16:48.013Z,12.17
2022-11-05T20:21:51.641Z,14.10
2022-11-05T20:26:55.492Z,13.13
2022-11-05T20:31:58.877Z,15.17
2022-11-05T20:37:02.375Z,10.20
2022-11-05T20:42:05.215Z,9.07
2022-11-05T20:47:08.373Z,8.77
2022-11-05T20:52:12.374Z,8.37
2022-11-05T20:57:15.206Z,7.77
2022-11-05T21:02:18.250Z,8.43
2022-11-05T21:07:21.242Z,7.67
2022-11-05T21:12:24.335Z,7.37
2022-11-05T21:17:27.305Z,6.50
2022-11-05T21:22:30.833Z,5.60
2022-11-05T21:27:33.770Z,5.97
2022-11-05T21:32:38.009Z,6.00
2022-11-05T21:37:41.774Z,6.17
2022-11-05T21:42:44.696Z,6.40
2022-11-05T21:47:47.836Z,6.93
2022-11-05T21:53:09.169Z,6.33
2022-11-05T21:58:33.696Z,6.83
2022-11-05T22:03:36.976Z,5.80
2022-11-05T22:08:39.863Z,5.80
2022-11-05T22:13:42.797Z,7.50
2022-11-05T22:18:45.599Z,7.93
2022-11-05T22:23:48.486Z,6.43
2022-11-05T22:28:54.475Z,6.40
2022-11-05T22:33:57.422Z,5.67
2022-11-05T22:39:04.293Z,6.70
2022-11-05T22:44:07.353Z,5.90
2022-11-05T22:49:10.745Z,8.83
2022-11-05T22:54:13.641Z,6.40
2022-11-05T22:59:16.604Z,5.30
2022-11-05T23:04:19.697Z,5.63
2022-11-05T23:09:44.906Z,5.20
2022-11-05T23:14:48.453Z,4.60
2022-11-05T23:20:10.383Z,5.40
2022-11-05T23:25:23.701Z,6.00
2022-11-05T23:30:27.410Z,5.67
2022-11-05T23:35:49.192Z,6.20
2022-11-05T23:41:10.842Z,6.67
2022-11-05T23:46:32.556Z,5.67
2022-11-05T23:51:35.556Z,4.90
2022-11-05T23:56:38.521Z,5.40
